createdAt,value
2017-10-25T00:00:51.538Z,17.08
2017-10-25T00:03:18.939Z,17.13
2017-10-25T00:05:46.330Z,17.08
2017-10-25T00:08:13.817Z,17.11
2017-10-25T00:10:41.263Z,17.05
2017-10-25T00:13:08.719Z,17.03
2017-10-25T00:15:36.113Z,17.06
2017-10-25T00:18:03.515Z,17.05
2017-10-25T00:20:30.911Z,17.09
2017-10-25T00:22:58.345Z,16.99
2017-10-25T00:25:25.811Z,16.98
2017-10-25T00:27:53.216Z,17.04
2017-10-25T00:30:20.718Z,17.01
2017-10-25T00:32:48.119Z,16.97
2017-10-25T00:35:15.531Z,17.09
2017-10-25T00:37:42.982Z,17.06
2017-10-25T00:40:10.456Z,17.08
2017-10-25T00:42:37.894Z,17.07
2017-10-25T00:45:05.356Z,17.18
2017-10-25T00:47:32.812Z,17.19
2017-10-25T00:50:00.210Z,17.21
2017-10-25T00:52:27.613Z,17.11
2017-10-25T00:54:55.019Z,17.10
2017-10-25T00:57:22.430Z,16.87
2017-10-25T00:59:49.885Z,17.00
2017-10-25T01:02:17.278Z,17.06
2017-10-25T02:36:18.421Z,16.71
2017-10-25T02:38:45.818Z,16.77
2017-10-25T02:41:13.306Z,16.84
2017-10-25T02:43:40.698Z,16.80
2017-10-25T02:46:08.114Z,16.90
2017-10-25T02:48:35.503Z,16.89
2017-10-25T02:51:03.036Z,16.92
2017-10-25T02:53:30.422Z,16.91
2017-10-25T02:55:57.834Z,16.93
2017-10-25T02:58:25.234Z,16.82
2017-10-25T03:00:52.629Z,16.80
2017-10-25T03:03:20.041Z,16.77
2017-10-25T03:05:47.423Z,16.87
2017-10-25T03:08:14.828Z,16.91
2017-10-25T03:10:42.226Z,16.91
2017-10-25T03:13:09.631Z,16.90
2017-10-25T03:15:37.027Z,16.94
2017-10-25T03:18:04.426Z,17.01
2017-10-25T03:20:31.828Z,16.83
2017-10-25T03:22:59.232Z,16.82
2017-10-25T03:25:26.630Z,16.74
2017-10-25T03:27:54.039Z,16.90
2017-10-25T03:30:21.528Z,16.98
2017-10-25T03:32:48.991Z,16.88
2017-10-25T03:35:16.391Z,16.82
2017-10-25T03:37:43.899Z,16.93
2017-10-25T03:40:11.303Z,16.98
2017-10-25T03:42:38.707Z,17.10
2017-10-25T03:45:06.109Z,17.04
2017-10-25T03:47:33.514Z,16.92
2017-10-25T03:50:00.902Z,16.95
2017-10-25T03:52:28.327Z,16.78
2017-10-25T03:54:55.734Z,16.76
2017-10-25T03:57:23.135Z,16.90
2017-10-25T03:59:50.595Z,16.79
2017-10-25T04:02:18.040Z,16.74
2017-10-25T04:04:45.444Z,16.65
2017-10-25T04:07:12.862Z,16.62
2017-10-25T04:09:40.254Z,16.74
2017-10-25T04:12:07.674Z,16.66
2017-10-25T04:14:35.066Z,16.69
2017-10-25T04:17:02.460Z,16.64
2017-10-25T04:19:29.938Z,16.81
2017-10-25T04:21:57.344Z,16.82
2017-10-25T04:24:24.738Z,16.78
2017-10-25T04:26:52.126Z,16.76
2017-10-25T04:29:19.547Z,16.83
2017-10-25T04:31:47.026Z,16.92
2017-10-25T04:34:14.430Z,17.03
2017-10-25T04:36:41.839Z,16.91
2017-10-25T04:39:09.293Z,16.83
2017-10-25T04:41:36.692Z,16.91
2017-10-25T04:44:04.081Z,16.62
2017-10-25T04:46:31.572Z,16.80
2017-10-25T04:48:58.956Z,16.77
2017-10-25T04:51:26.387Z,16.80
2017-10-25T04:53:53.784Z,16.76
2017-10-25T04:56:21.176Z,16.53
2017-10-25T04:58:48.580Z,16.35
2017-10-25T05:01:15.995Z,16.30
2017-10-25T05:03:43.395Z,16.26
2017-10-25T05:06:10.798Z,16.50
2017-10-25T05:08:38.222Z,16.45
2017-10-25T05:11:05.729Z,16.43
2017-10-25T05:13:33.202Z,16.48
2017-10-25T05:16:00.585Z,16.47
2017-10-25T05:18:28.015Z,16.38
2017-10-25T05:20:55.403Z,16.44
2017-10-25T05:23:22.811Z,16.49
2017-10-25T05:25:50.211Z,16.45
2017-10-25T05:28:17.611Z,16.40
2017-10-25T05:30:45.077Z,16.53
2017-10-25T05:33:12.522Z,16.48
2017-10-25T05:35:39.992Z,16.48
2017-10-25T05:38:07.438Z,16.41
2017-10-25T05:40:34.835Z,16.24
2017-10-25T05:43:02.235Z,16.32
2017-10-25T05:45:29.712Z,16.34
2017-10-25T05:47:57.111Z,16.28
2017-10-25T05:50:24.614Z,16.36
2017-10-25T05:52:52.083Z,16.48
2017-10-25T05:55:19.539Z,16.39
2017-10-25T05:57:46.940Z,16.48
2017-10-25T06:00:14.363Z,16.27
2017-10-25T06:02:41.807Z,16.30
2017-10-25T06:05:09.260Z,16.37
2017-10-25T06:07:36.664Z,16.42
2017-10-25T06:10:04.072Z,16.33
2017-10-25T06:12:31.475Z,16.46
2017-10-25T06:14:58.871Z,16.37
2017-10-25T06:17:26.279Z,16.41
2017-10-25T06:19:53.674Z,16.49
2017-10-25T06:22:21.088Z,16.47
2017-10-25T06:24:48.511Z,16.38
2017-10-25T06:27:15.907Z,16.39
2017-10-25T06:29:43.419Z,16.39
2017-10-25T06:32:10.880Z,16.31
2017-10-25T06:34:38.268Z,16.26
2017-10-25T06:37:05.690Z,16.22
2017-10-25T06:39:33.143Z,16.17
2017-10-25T06:42:00.542Z,16.25
2017-10-25T06:44:27.955Z,16.35
2017-10-25T06:46:55.351Z,16.38
2017-10-25T06:49:22.747Z,16.39
2017-10-25T06:51:50.149Z,16.32
2017-10-25T06:54:17.572Z,16.30
2017-10-25T06:56:45.035Z,16.50
2017-10-25T06:59:12.485Z,16.34
2017-10-25T07:01:39.894Z,16.30
2017-10-25T07:04:07.294Z,16.28
2017-10-25T07:06:34.759Z,16.30
2017-10-25T07:09:02.219Z,16.36
2017-10-25T07:11:29.614Z,16.39
2017-10-25T07:13:57.006Z,16.21
2017-10-25T07:16:24.402Z,16.24
2017-10-25T07:18:51.802Z,16.36
2017-10-25T07:21:19.194Z,16.40
2017-10-25T07:23:46.655Z,16.43
2017-10-25T07:26:14.102Z,16.46
2017-10-25T07:28:41.507Z,16.48
2017-10-25T07:31:08.910Z,16.62
2017-10-25T07:33:36.311Z,16.53
2017-10-25T07:36:03.711Z,16.58
2017-10-25T07:38:31.106Z,16.61
2017-10-25T07:40:58.523Z,16.68
2017-10-25T07:43:25.954Z,16.60
2017-10-25T07:45:53.360Z,16.69
2017-10-25T07:48:20.742Z,16.79
2017-10-25T07:50:48.153Z,16.78
2017-10-25T07:53:15.535Z,16.89
2017-10-25T07:55:42.940Z,16.76
2017-10-25T07:58:10.422Z,16.70
2017-10-25T08:00:37.826Z,16.79
2017-10-25T08:03:05.239Z,16.84
2017-10-25T08:05:32.694Z,16.84
2017-10-25T08:08:00.082Z,16.93
2017-10-25T08:10:27.491Z,17.06
2017-10-25T08:12:54.966Z,17.25
2017-10-25T08:15:22.423Z,17.24
2017-10-25T08:17:49.814Z,17.42
2017-10-25T08:20:17.222Z,17.70
2017-10-25T08:22:44.611Z,18.00
2017-10-25T08:25:12.011Z,18.43
2017-10-25T08:27:39.499Z,18.64
2017-10-25T08:30:06.903Z,18.83
2017-10-25T08:32:34.294Z,19.18
2017-10-25T08:35:01.703Z,19.13
2017-10-25T08:37:29.126Z,19.61
2017-10-25T08:39:56.579Z,20.18
2017-10-25T08:42:23.976Z,20.91
2017-10-25T08:44:51.380Z,21.61
2017-10-25T08:47:18.779Z,22.33
2017-10-25T08:49:46.179Z,22.67
2017-10-25T08:52:13.667Z,22.36
2017-10-25T08:54:41.123Z,22.54
2017-10-25T08:57:08.506Z,21.94
2017-10-25T08:59:36.032Z,21.60
2017-10-25T09:02:03.487Z,20.69
2017-10-25T09:04:30.882Z,20.20
2017-10-25T09:06:58.299Z,19.62
2017-10-25T09:09:25.703Z,19.14
2017-10-25T09:11:53.220Z,18.62
2017-10-25T09:14:21.533Z,18.79
2017-10-25T09:16:48.930Z,18.51
2017-10-25T09:19:16.408Z,18.90
2017-10-25T09:21:43.867Z,19.35
2017-10-25T09:24:11.255Z,19.86
2017-10-25T09:26:38.669Z,20.27
2017-10-25T09:29:06.057Z,20.65
2017-10-25T09:31:33.450Z,21.11
2017-10-25T09:34:00.835Z,20.60
2017-10-25T09:36:28.236Z,20.40
2017-10-25T09:38:56.579Z,20.55
2017-10-25T09:41:23.971Z,20.16
2017-10-25T09:43:51.371Z,19.52
2017-10-25T09:46:18.842Z,18.58
2017-10-25T09:48:46.302Z,18.74
2017-10-25T09:51:13.688Z,18.51
2017-10-25T09:53:41.086Z,18.63
2017-10-25T09:56:08.463Z,18.53
2017-10-25T09:58:35.858Z,18.05
2017-10-25T10:01:03.286Z,17.72
2017-10-25T10:03:30.686Z,17.76
2017-10-25T10:05:58.076Z,17.78
2017-10-25T10:08:25.554Z,17.67
2017-10-25T10:10:52.951Z,17.69
2017-10-25T10:13:20.342Z,17.68
2017-10-25T10:15:47.744Z,17.61
2017-10-25T10:18:15.122Z,17.56
2017-10-25T10:20:42.509Z,17.63
2017-10-25T10:23:09.905Z,17.86
2017-10-25T10:25:37.288Z,17.89
2017-10-25T10:28:04.748Z,18.29
2017-10-25T10:30:32.261Z,18.98
2017-10-25T10:32:59.707Z,19.51
2017-10-25T10:35:27.162Z,19.62
2017-10-25T10:37:54.613Z,19.30
2017-10-25T10:40:22.007Z,19.48
2017-10-25T10:42:49.459Z,19.50
2017-10-25T10:45:16.842Z,19.47
2017-10-25T10:47:44.237Z,19.20
2017-10-25T10:50:11.627Z,18.91
2017-10-25T10:52:39.016Z,18.66
2017-10-25T10:55:06.519Z,18.36
2017-10-25T10:57:33.969Z,18.32
2017-10-25T11:00:01.428Z,18.57
2017-10-25T11:02:28.893Z,18.37
2017-10-25T11:04:56.346Z,18.20
2017-10-25T11:07:23.735Z,18.24
2017-10-25T11:09:51.122Z,18.36
2017-10-25T11:12:18.509Z,18.21
2017-10-25T11:14:45.900Z,18.04
2017-10-25T11:17:13.339Z,17.99
2017-10-25T11:19:40.744Z,17.79
2017-10-25T11:22:08.123Z,17.91
2017-10-25T11:24:35.591Z,17.92
2017-10-25T11:27:03.043Z,17.61
2017-10-25T11:29:30.520Z,17.87
2017-10-25T11:31:57.953Z,17.75
2017-10-25T11:34:25.410Z,17.60
2017-10-25T11:36:52.807Z,17.47
2017-10-25T11:39:20.193Z,17.45
2017-10-25T11:41:47.586Z,17.23
2017-10-25T11:44:15.043Z,16.90
2017-10-25T11:46:42.449Z,16.91
2017-10-25T11:49:09.830Z,16.85
2017-10-25T11:51:37.339Z,16.85
2017-10-25T11:54:04.743Z,16.64
2017-10-25T11:56:32.142Z,16.53
2017-10-25T11:58:59.541Z,16.67
2017-10-25T12:01:27.035Z,16.54
2017-10-25T12:03:54.432Z,16.53
2017-10-25T12:06:21.843Z,16.56
2017-10-25T12:08:49.314Z,16.74
2017-10-25T12:11:16.766Z,16.59
2017-10-25T12:13:44.230Z,16.71
2017-10-25T12:16:11.682Z,16.58
2017-10-25T12:18:39.079Z,16.59
2017-10-25T12:21:06.499Z,16.51
2017-10-25T12:23:33.890Z,16.55
2017-10-25T12:26:01.307Z,16.49
2017-10-25T12:28:28.694Z,16.37
2017-10-25T12:30:56.114Z,16.43
2017-10-25T12:33:23.574Z,16.36
2017-10-25T12:35:51.070Z,16.54
2017-10-25T12:38:18.474Z,16.50
2017-10-25T12:40:45.927Z,16.47
2017-10-25T12:43:13.404Z,16.36
2017-10-25T12:45:40.883Z,16.29
2017-10-25T12:48:08.291Z,16.23
2017-10-25T12:50:35.687Z,16.06
2017-10-25T12:53:03.092Z,16.07
2017-10-25T12:55:30.486Z,15.84
2017-10-25T12:57:57.883Z,15.64
2017-10-25T13:00:25.279Z,15.76
2017-10-25T13:02:52.688Z,15.68
2017-10-25T13:05:20.099Z,15.62
2017-10-25T13:07:47.567Z,15.61
2017-10-25T13:10:17.446Z,15.60
2017-10-25T13:12:46.663Z,15.51
2017-10-25T13:15:15.848Z,15.51
2017-10-25T13:17:44.582Z,15.39
2017-10-25T13:20:12.014Z,15.36
2017-10-25T13:22:39.415Z,15.25
2017-10-25T13:25:06.818Z,15.28
2017-10-25T13:27:34.279Z,15.32
2017-10-25T13:30:01.683Z,15.41
2017-10-25T13:32:29.094Z,15.49
2017-10-25T13:34:56.486Z,15.37
2017-10-25T13:37:24.002Z,15.49
2017-10-25T13:39:51.467Z,15.42
2017-10-25T13:42:18.937Z,15.45
2017-10-25T13:44:46.355Z,15.50
2017-10-25T13:47:13.844Z,15.51
2017-10-25T13:49:41.312Z,15.56
2017-10-25T13:52:08.695Z,15.59
2017-10-25T13:54:36.218Z,15.65
2017-10-25T13:57:03.664Z,15.64
2017-10-25T13:59:31.066Z,15.71
2017-10-25T14:01:58.464Z,15.79
2017-10-25T14:04:25.939Z,15.65
2017-10-25T14:06:53.390Z,15.65
2017-10-25T14:09:20.852Z,15.75
2017-10-25T14:11:48.246Z,15.70
2017-10-25T14:14:15.659Z,15.60
2017-10-25T14:16:43.055Z,15.77
2017-10-25T14:19:10.460Z,16.01
2017-10-25T14:21:37.851Z,16.03
2017-10-25T14:24:05.256Z,15.90
2017-10-25T14:26:44.456Z,15.87
2017-10-25T14:29:11.899Z,15.96
2017-10-25T14:31:39.322Z,15.80
2017-10-25T14:34:06.726Z,15.88
2017-10-25T14:36:34.263Z,15.88
2017-10-25T14:39:01.646Z,16.00
2017-10-25T14:41:29.159Z,15.88
2017-10-25T14:43:56.560Z,15.99
2017-10-25T14:46:23.964Z,15.93
2017-10-25T14:48:51.385Z,15.89
2017-10-25T14:51:18.791Z,15.89
2017-10-25T14:53:46.191Z,16.17
2017-10-25T14:56:13.587Z,16.26
2017-10-25T14:58:40.982Z,16.32
2017-10-25T15:01:08.387Z,16.32
2017-10-25T15:03:35.788Z,16.34
2017-10-25T15:06:03.184Z,16.21
2017-10-25T15:08:30.658Z,16.41
2017-10-25T15:10:58.069Z,16.32
2017-10-25T15:13:25.446Z,16.18
2017-10-25T15:15:52.847Z,16.37
2017-10-25T15:18:20.252Z,16.30
2017-10-25T15:20:47.646Z,16.28
2017-10-25T15:23:15.035Z,16.32
2017-10-25T15:25:42.455Z,16.16
2017-10-25T15:28:09.925Z,16.11
2017-10-25T15:30:37.370Z,16.26
2017-10-25T15:33:04.775Z,16.09
2017-10-25T15:35:32.180Z,15.98
2017-10-25T15:37:59.634Z,16.19
2017-10-25T15:40:27.027Z,16.23
2017-10-25T15:42:54.419Z,16.30
2017-10-25T15:45:21.805Z,16.36
2017-10-25T15:47:49.215Z,16.44
2017-10-25T15:50:16.603Z,16.60
2017-10-25T15:52:44.062Z,16.62
2017-10-25T15:55:11.455Z,16.48
2017-10-25T15:57:38.857Z,16.38
2017-10-25T16:00:06.238Z,16.32
2017-10-25T16:02:33.631Z,16.54
2017-10-25T16:05:01.051Z,16.53
2017-10-25T16:07:28.454Z,16.66
2017-10-25T16:09:55.851Z,16.68
2017-10-25T16:12:23.319Z,16.68
2017-10-25T16:14:50.726Z,16.58
2017-10-25T16:17:18.148Z,16.64
2017-10-25T16:19:45.539Z,16.53
2017-10-25T16:22:12.934Z,16.22
2017-10-25T16:24:40.335Z,16.04
2017-10-25T16:27:07.751Z,15.95
2017-10-25T16:29:35.169Z,16.01
2017-10-25T16:32:02.568Z,16.28
2017-10-25T16:34:29.962Z,16.29
2017-10-25T16:36:57.366Z,16.50
2017-10-25T16:39:24.769Z,16.12
2017-10-25T16:41:52.168Z,16.00
2017-10-25T16:44:19.634Z,15.81
2017-10-25T16:46:47.034Z,15.92
2017-10-25T16:49:14.439Z,15.73
2017-10-25T16:51:41.910Z,15.82
2017-10-25T16:54:09.310Z,15.78
2017-10-25T16:56:36.712Z,15.76
2017-10-25T16:59:04.112Z,15.74
2017-10-25T17:01:31.510Z,15.79
2017-10-25T17:03:58.911Z,15.71
2017-10-25T17:06:26.316Z,15.66
2017-10-25T17:08:53.730Z,15.76
2017-10-25T17:11:21.123Z,15.52
2017-10-25T17:13:48.616Z,15.47
2017-10-25T17:16:16.251Z,15.63
2017-10-25T17:18:43.646Z,15.49
2017-10-25T17:21:11.129Z,15.58
2017-10-25T17:23:38.537Z,15.54
2017-10-25T17:26:05.955Z,15.65
2017-10-25T17:28:33.334Z,15.49
2017-10-25T17:31:00.730Z,15.45
2017-10-25T17:33:28.137Z,15.41
2017-10-25T17:35:55.528Z,15.51
2017-10-25T17:38:22.919Z,15.56
2017-10-25T17:40:50.321Z,15.44
2017-10-25T17:43:17.738Z,15.34
2017-10-25T17:45:45.146Z,15.19
2017-10-25T17:48:12.538Z,15.03
2017-10-25T17:50:39.934Z,15.07
2017-10-25T17:53:07.340Z,14.83
2017-10-25T17:55:34.754Z,14.67
2017-10-25T18:00:52.718Z,14.44
2017-10-25T18:03:20.270Z,14.56
2017-10-25T18:05:47.662Z,14.57
2017-10-25T18:08:15.083Z,14.56
2017-10-25T18:10:42.546Z,14.52
2017-10-25T18:13:09.932Z,14.45
2017-10-25T18:15:37.323Z,14.26
2017-10-25T18:18:04.716Z,14.30
2017-10-25T18:20:32.172Z,14.37
2017-10-25T18:22:59.554Z,14.41
2017-10-25T18:25:26.971Z,14.08
2017-10-25T18:27:54.358Z,14.19
2017-10-25T18:30:21.803Z,13.86
2017-10-25T18:32:49.250Z,13.93
2017-10-25T18:35:16.707Z,13.88
2017-10-25T18:37:44.177Z,13.81
2017-10-25T18:40:11.558Z,13.69
2017-10-25T18:42:38.975Z,13.59
2017-10-25T18:45:06.372Z,13.47
2017-10-25T18:47:33.782Z,13.61
2017-10-25T18:50:01.230Z,13.74
2017-10-25T18:52:28.632Z,13.77
2017-10-25T18:54:56.026Z,13.72
2017-10-25T18:57:23.526Z,13.53
2017-10-25T18:59:50.981Z,13.56
2017-10-25T19:02:18.415Z,13.70
2017-10-25T19:04:45.812Z,13.76
2017-10-25T19:07:13.263Z,13.78
2017-10-25T19:09:40.657Z,13.85
2017-10-25T19:12:08.042Z,13.91
2017-10-25T19:14:35.434Z,14.08
2017-10-25T19:17:02.855Z,14.18
2017-10-25T19:19:30.238Z,14.22
2017-10-25T19:21:57.635Z,14.30
2017-10-25T19:24:25.027Z,14.24
2017-10-25T19:26:52.450Z,14.24
2017-10-25T19:29:19.830Z,14.26
2017-10-25T19:31:47.302Z,14.19
2017-10-25T19:34:14.682Z,14.02
2017-10-25T19:36:42.103Z,13.89
2017-10-25T19:39:09.559Z,13.97
2017-10-25T19:41:36.964Z,14.02
2017-10-25T19:44:04.362Z,13.70
2017-10-25T19:46:31.842Z,13.79
2017-10-25T19:48:59.210Z,13.80
2017-10-25T19:51:26.615Z,13.83
2017-10-25T19:53:54.022Z,13.77
2017-10-25T19:56:21.426Z,13.74
2017-10-25T19:58:48.802Z,13.67
2017-10-25T20:01:16.219Z,13.67
2017-10-25T20:03:43.603Z,13.61
2017-10-25T20:06:10.991Z,13.55
2017-10-25T20:08:38.424Z,13.64
2017-10-25T20:11:05.878Z,13.55
2017-10-25T20:13:33.285Z,13.62
2017-10-25T20:16:00.690Z,13.55
2017-10-25T20:18:28.143Z,13.58
2017-10-25T20:20:55.616Z,13.58
2017-10-25T20:23:23.002Z,13.34
2017-10-25T20:25:50.415Z,13.31
2017-10-25T20:28:17.816Z,13.36
2017-10-25T20:30:45.206Z,13.40
2017-10-25T20:33:12.686Z,13.36
2017-10-25T20:35:40.078Z,13.40
2017-10-25T20:38:07.495Z,13.37
2017-10-25T20:40:34.951Z,13.41
2017-10-25T20:43:02.354Z,13.44
2017-10-25T20:45:29.766Z,13.45
2017-10-25T20:47:57.174Z,13.30
2017-10-25T20:50:24.570Z,13.29
2017-10-25T20:52:51.962Z,13.28
2017-10-25T20:55:19.360Z,13.23
2017-10-25T20:57:46.856Z,13.22
2017-10-25T21:00:14.296Z,13.23
2017-10-25T21:02:41.742Z,13.18
2017-10-25T21:05:09.207Z,13.23
2017-10-25T21:07:36.600Z,13.17
2017-10-25T21:10:04.003Z,13.15
2017-10-25T21:12:31.392Z,13.02
2017-10-25T21:14:58.803Z,13.05
2017-10-25T21:17:26.297Z,12.95
2017-10-25T21:19:53.743Z,12.88
2017-10-25T21:22:21.143Z,12.88
2017-10-25T21:24:48.568Z,12.86
2017-10-25T21:27:15.946Z,12.89
2017-10-25T21:29:43.368Z,12.82
2017-10-25T21:32:10.773Z,12.61
2017-10-25T21:34:38.169Z,12.76
2017-10-25T21:37:05.638Z,12.77
2017-10-25T21:39:33.086Z,12.71
2017-10-25T21:42:00.483Z,12.65
2017-10-25T21:44:27.870Z,12.55
2017-10-25T21:46:55.268Z,12.64
2017-10-25T21:49:22.654Z,12.72
2017-10-25T21:51:50.048Z,12.69
2017-10-25T21:54:17.436Z,12.70
2017-10-25T21:56:44.886Z,12.75
2017-10-25T21:59:12.405Z,12.65
2017-10-25T22:01:39.903Z,12.59
2017-10-25T22:04:07.298Z,12.62
2017-10-25T22:06:34.718Z,12.54
2017-10-25T22:09:02.131Z,12.45
2017-10-25T22:11:29.586Z,12.45
2017-10-25T22:13:56.983Z,12.53
2017-10-25T22:16:24.406Z,12.56
2017-10-25T22:18:51.787Z,12.51
2017-10-25T22:21:19.203Z,12.49
2017-10-25T22:23:46.703Z,12.58
2017-10-25T22:26:14.093Z,12.64
2017-10-25T22:28:41.490Z,12.66
2017-10-25T22:31:08.885Z,12.65
2017-10-25T22:33:36.276Z,12.68
2017-10-25T22:36:03.667Z,12.61
2017-10-25T22:38:31.066Z,12.57
2017-10-25T22:40:58.491Z,12.41
2017-10-25T22:43:25.918Z,12.51
2017-10-25T22:45:53.334Z,12.43
2017-10-25T22:48:20.815Z,12.34
2017-10-25T22:50:48.204Z,12.39
2017-10-25T22:53:15.621Z,12.51
2017-10-25T22:55:43.006Z,12.54
2017-10-25T22:58:10.406Z,12.56
2017-10-25T23:00:37.805Z,12.39
2017-10-25T23:03:05.202Z,12.40
2017-10-25T23:05:32.690Z,12.37
2017-10-25T23:08:00.087Z,12.47
2017-10-25T23:10:27.492Z,12.41
2017-10-25T23:12:54.960Z,12.42
2017-10-25T23:15:22.351Z,12.36
2017-10-25T23:17:49.742Z,12.24
2017-10-25T23:20:17.174Z,12.22
2017-10-25T23:22:44.570Z,12.17
2017-10-25T23:25:11.968Z,12.20
2017-10-25T23:27:39.396Z,12.12
2017-10-25T23:30:06.869Z,12.16
2017-10-25T23:32:34.270Z,12.19
2017-10-25T23:35:01.662Z,12.29
2017-10-25T23:37:29.058Z,12.19
2017-10-25T23:39:56.475Z,12.24
2017-10-25T23:42:23.931Z,12.14
2017-10-25T23:44:51.386Z,12.21
2017-10-25T23:47:18.769Z,12.10
2017-10-25T23:49:46.167Z,11.90
2017-10-25T23:52:13.654Z,11.88
2017-10-25T23:54:41.116Z,11.94
2017-10-25T23:57:08.513Z,12.06
2017-10-25T23:59:35.920Z,12.06
